Time;durP1;ratioP1;P1;durP2;ratioP2;P2;SDS_P1;SDS_P2;PMS_P1;PMS_P2;Temp;Humidity;BMP_temperature;BMP_pressure;BME280_temperature;BME280_humidity;BME280_pressure;Samples;Min_cycle;Max_cycle;Signal;HPM_P1;HPM_P2
2023/11/22 13:55:31;;;;;;;9.30;6.60;;;;;;;1.59;39.86;101663.58;105322;305;651676;-57
2023/11/22 13:58:13;;;;;;;11.30;7.80;;;;;;;1.36;40.42;101665.16;106827;284;93986;-53
2023/11/22 14:00:54;;;;;;;9.70;6.90;;;;;;;1.07;41.34;101653.70;106813;288;98229;-52
2023/11/22 14:03:31;;;;;;;11.50;7.90;;;;;;;0.83;42.04;101654.25;106824;288;116239;-57
2023/11/22 14:06:09;;;;;;;9.70;6.80;;;;;;;0.57;42.87;101651.77;106991;285;105987;-55
2023/11/22 14:08:48;;;;;;;11.40;6.90;;;;;;;0.34;43.50;101647.02;106499;285;689220;-51
2023/11/22 14:11:35;;;;;;;18.70;7.60;;;;;;;0.14;44.51;101643.50;107081;282;93385;-53
2023/11/22 14:14:19;;;;;;;10.00;7.30;;;;;;;-0.06;45.48;101648.05;107125;279;96258;-55
2023/11/22 14:16:57;;;;;;;9.10;6.50;;;;;;;-0.20;46.00;101648.90;107114;280;117198;-55
2023/11/22 14:19:32;;;;;;;12.50;6.80;;;;;;;-0.35;46.79;101646.39;107192;284;104766;-56
2023/11/22 14:22:10;;;;;;;12.70;7.60;;;;;;;-0.41;47.09;101640.77;107133;284;112984;-56
2023/11/22 14:25:39;;;;;;;14.00;8.20;;;;;;;-0.48;47.68;101623.48;104422;310;679310;-57
2023/11/22 14:28:29;;;;;;;17.00;9.10;;;;;;;-0.58;48.24;101625.11;106694;289;94168;-57
2023/11/22 14:31:10;;;;;;;13.90;8.90;;;;;;;-0.68;48.67;101611.88;106563;287;116525;-57
2023/11/22 14:33:56;;;;;;;13.40;8.20;;;;;;;-0.78;49.04;101608.02;106712;285;118638;-58
2023/11/22 14:36:41;;;;;;;14.60;9.40;;;;;;;-0.90;49.28;101607.30;106718;289;103797;-57
2023/11/22 14:39:29;;;;;;;20.30;10.70;;;;;;;-1.03;49.84;101604.04;106172;289;769956;-55
2023/11/22 14:42:16;;;;;;;43.50;18.80;;;;;;;-1.16;50.32;101593.77;107176;284;93736;-53
2023/11/22 14:44:55;;;;;;;49.10;21.80;;;;;;;-1.24;50.52;101584.71;107118;284;97562;-52
2023/11/22 14:47:40;;;;;;;45.20;17.90;;;;;;;-1.35;51.06;101584.27;107154;284;117294;-57
2023/11/22 14:50:16;;;;;;;;;;;;;;;-1.49;51.39;101585.36;107138;284;106153;-57
2023/11/22 14:52:56;;;;;;;24.90;12.90;;;;;;;-1.59;51.77;101581.33;107148;284;114666;-55
2023/11/22 14:55:42;;;;;;;22.60;11.70;;;;;;;-1.69;52.10;101569.16;107160;284;94284;-55
2023/11/22 14:58:27;;;;;;;15.70;10.20;;;;;;;-1.76;52.33;101565.70;107153;284;97733;-53
2023/11/22 15:01:06;;;;;;;;;;;;;;;-1.87;52.57;101570.17;107156;285;117287;-54
2023/11/22 15:03:56;;;;;;;15.20;8.90;;;;;;;-2.00;52.94;101577.17;107160;284;105109;-54
2023/11/22 15:06:41;;;;;;;20.40;11.20;;;;;;;-2.11;53.38;101590.65;107137;284;113337;-54
2023/11/22 15:09:26;;;;;;;25.40;15.10;;;;;;;-2.16;53.88;101587.73;107127;285;94554;-53
2023/11/22 15:12:06;;;;;;;20.70;13.00;;;;;;;-2.17;54.16;101584.30;107213;284;97907;-54
2023/11/22 15:14:47;;;;;;;20.20;12.00;;;;;;;-2.21;54.34;101591.73;107128;284;117807;-58
2023/11/22 15:17:25;;;;;;;21.00;12.80;;;;;;;-2.23;54.85;101602.27;107137;284;104166;-56
2023/11/22 15:20:09;;;;;;;37.50;24.50;;;;;;;-2.23;54.97;101604.69;107122;284;114824;-56
2023/11/22 15:22:52;;;;;;;34.70;20.10;;;;;;;-2.20;54.99;101606.16;107106;284;94163;-53
2023/11/22 15:25:29;;;;;;;21.60;13.40;;;;;;;-2.18;55.21;101606.91;107176;284;97925;-53
2023/11/22 15:28:22;;;;;;;24.60;11.90;;;;;;;-2.15;55.44;101612.44;107139;284;118744;-56
2023/11/22 15:31:00;;;;;;;22.10;13.60;;;;;;;-2.13;55.52;101617.58;107163;284;105667;-54
2023/11/22 15:33:42;;;;;;;17.10;12.00;;;;;;;-2.08;55.64;101605.88;107099;284;113714;-56
2023/11/22 15:36:26;;;;;;;15.70;10.00;;;;;;;-2.05;55.80;101588.56;107140;285;95782;-55
2023/11/22 15:39:11;;;;;;;12.30;9.60;;;;;;;-1.98;55.97;101582.89;107206;284;98257;-53
2023/11/22 15:41:54;;;;;;;18.10;10.60;;;;;;;-1.96;55.96;101578.73;107153;284;117958;-51
2023/11/22 15:44:35;;;;;;;16.40;10.30;;;;;;;-1.90;56.05;101581.24;107140;284;105046;-55
2023/11/22 15:47:18;;;;;;;18.50;10.50;;;;;;;-1.87;56.19;101587.14;107140;284;113483;-52
2023/11/22 15:50:02;;;;;;;17.90;10.60;;;;;;;-1.88;56.24;101610.10;107022;284;94045;-55
2023/11/22 15:52:39;;;;;;;21.90;13.70;;;;;;;-1.86;56.44;101608.73;107170;284;97656;-55
2023/11/22 15:55:23;;;;;;;20.90;13.50;;;;;;;-1.83;56.58;101602.39;107141;284;117922;-55
2023/11/22 15:58:00;;;;;;;19.40;10.60;;;;;;;-1.82;56.64;101600.77;107188;284;104447;-58
2023/11/22 16:00:36;;;;;;;19.90;9.90;;;;;;;-1.87;56.77;101611.60;107131;284;116917;-57
2023/11/22 16:03:18;;;;;;;16.60;10.40;;;;;;;-1.89;57.06;101617.73;107172;284;92866;-55
2023/11/22 16:05:57;;;;;;;16.80;10.30;;;;;;;-1.89;57.21;101621.80;107175;284;96656;-53
2023/11/22 16:11:57;;;;;;;18.70;12.30;;;;;;;-1.94;57.37;101610.94;107237;282;105125;-52
2023/11/22 16:14:43;;;;;;;21.00;12.50;;;;;;;-1.96;57.57;101618.61;107171;283;114651;-52
2023/11/22 16:17:20;;;;;;;20.30;12.20;;;;;;;-1.95;57.65;101619.83;107233;283;93395;-52
2023/11/22 16:20:10;;;;;;;20.50;12.60;;;;;;;-1.95;57.71;101615.77;107171;283;98058;-50
2023/11/22 16:22:49;;;;;;;25.00;14.30;;;;;;;-1.96;57.96;101614.21;107108;283;118713;-51
2023/11/22 16:25:27;;;;;;;24.80;14.70;;;;;;;-1.95;58.22;101614.14;107159;283;105272;-57
2023/11/22 16:28:04;;;;;;;23.40;14.90;;;;;;;-1.92;58.30;101609.61;107166;283;113631;-57
2023/11/22 16:30:42;;;;;;;27.00;15.50;;;;;;;-1.90;58.34;101623.42;107129;283;93441;-57
2023/11/22 16:33:17;;;;;;;26.00;15.90;;;;;;;-1.88;58.46;101624.19;107135;283;97906;-56
2023/11/22 16:36:00;;;;;;;29.00;17.70;;;;;;;-1.85;58.43;101625.98;107185;283;116540;-55
2023/11/22 16:38:46;;;;;;;34.10;20.40;;;;;;;-1.81;58.54;101632.34;107262;283;106471;-53
2023/11/22 16:41:24;;;;;;;28.90;18.50;;;;;;;-1.80;58.78;101637.92;107203;283;114073;-54
2023/11/22 16:44:00;;;;;;;27.30;18.10;;;;;;;-1.80;58.81;101641.98;107257;283;92286;-56
2023/11/22 16:46:39;;;;;;;29.20;17.70;;;;;;;-1.82;58.96;101648.27;107166;283;99193;-53
2023/11/22 16:49:16;;;;;;;30.70;18.90;;;;;;;-1.84;59.17;101647.10;107229;283;119109;-54
2023/11/22 16:51:54;;;;;;;36.00;20.70;;;;;;;-1.85;59.25;101648.38;107178;283;106004;-57
2023/11/22 16:54:32;;;;;;;33.80;20.30;;;;;;;-1.83;59.30;101646.02;107230;283;116085;-57
2023/11/22 16:57:17;;;;;;;37.10;22.10;;;;;;;-1.83;59.42;101648.52;107211;283;93554;-59
2023/11/22 16:59:58;;;;;;;32.70;20.00;;;;;;;-1.83;59.46;101643.02;107194;281;98642;-58
2023/11/22 17:02:36;;;;;;;29.10;18.50;;;;;;;-1.86;59.65;101647.73;107148;283;118121;-57
2023/11/22 17:05:11;;;;;;;29.80;17.40;;;;;;;-1.89;59.84;101653.75;107184;283;105205;-57
2023/11/22 17:07:52;;;;;;;30.50;17.30;;;;;;;-1.92;59.93;101660.77;107220;283;113201;-57
2023/11/22 17:10:35;;;;;;;29.00;17.30;;;;;;;-1.93;60.11;101655.20;107241;283;95669;-55
2023/11/22 17:13:17;;;;;;;31.50;18.50;;;;;;;-1.93;60.25;101647.25;107255;283;97200;-54
2023/11/22 17:15:55;;;;;;;31.40;18.30;;;;;;;-1.92;60.35;101641.90;107260;283;118164;-55
2023/11/22 17:18:32;;;;;;;32.20;19.70;;;;;;;-1.90;60.46;101626.79;107193;283;104637;-57
2023/11/22 17:21:11;;;;;;;35.90;21.00;;;;;;;-1.86;60.73;101613.35;107230;283;113720;-53
2023/11/22 17:23:46;;;;;;;34.10;20.00;;;;;;;-1.85;60.80;101600.57;107212;283;91612;-51
2023/11/22 17:26:21;;;;;;;32.70;20.20;;;;;;;-1.86;60.63;101598.52;107238;283;97720;-52
2023/11/22 17:29:02;;;;;;;34.10;20.90;;;;;;;-1.91;60.67;101585.88;107230;283;118929;-56
2023/11/22 17:31:41;;;;;;;29.30;18.80;;;;;;;-1.92;60.66;101585.77;107245;283;104862;-51
2023/11/22 17:34:27;;;;;;;33.10;18.40;;;;;;;-1.99;60.78;101590.90;107211;283;113333;-57
2023/11/22 17:37:08;;;;;;;32.90;18.60;;;;;;;-2.02;60.97;101597.98;107208;283;95005;-56
2023/11/22 17:39:45;;;;;;;30.10;18.10;;;;;;;-2.06;61.14;101614.58;107221;283;98012;-58
2023/11/22 17:42:24;;;;;;;30.00;17.50;;;;;;;-2.12;61.38;101619.46;107211;283;117819;-53
2023/11/22 17:45:03;;;;;;;36.40;19.90;;;;;;;-2.13;61.40;101606.98;107149;277;105801;-53
2023/11/22 17:47:40;;;;;;;32.10;19.20;;;;;;;-2.13;61.51;101599.94;107134;283;115072;-59
2023/11/22 17:50:17;;;;;;;33.00;18.70;;;;;;;-2.12;61.53;101597.96;107239;283;92991;-58
2023/11/22 17:52:54;;;;;;;39.20;20.30;;;;;;;-2.14;61.80;101585.55;107300;283;96567;-57
2023/11/22 17:55:34;;;;;;;38.40;20.50;;;;;;;-2.24;61.72;101584.45;107241;283;117593;-59
2023/11/22 17:58:18;;;;;;;32.80;20.30;;;;;;;-2.33;61.94;101575.27;107294;283;103673;-55
2023/11/22 18:01:02;;;;;;;35.80;21.40;;;;;;;-2.44;62.19;101558.50;107236;283;113814;-58
2023/11/22 18:03:40;;;;;;;37.30;20.00;;;;;;;-2.51;62.28;101553.41;107244;283;94665;-51
2023/11/22 18:06:38;;;;;;;34.40;20.00;;;;;;;-2.57;62.42;101542.78;107247;283;97236;-52
2023/11/22 18:09:46;;;;;;;35.00;19.10;;;;;;;-2.63;62.74;101530.60;107114;283;118384;-56
2023/11/22 18:12:52;;;;;;;32.10;18.50;;;;;;;-2.67;63.13;101528.34;107120;284;104120;-53
2023/11/22 18:15:28;;;;;;;34.70;18.50;;;;;;;-2.64;63.29;101530.30;107096;283;113491;-51
2023/11/22 18:18:05;;;;;;;29.80;17.80;;;;;;;-2.63;63.36;101540.13;107112;284;93180;-54
2023/11/22 18:20:44;;;;;;;32.50;17.60;;;;;;;-2.64;63.52;101530.44;107146;284;95586;-52
2023/11/22 18:26:17;;;;;;;34.50;17.10;;;;;;;-2.72;63.54;101540.23;107165;283;104758;-53
2023/11/22 18:29:34;;;;;;;30.30;16.80;;;;;;;-2.77;63.56;101543.64;107130;276;114587;-56
2023/11/22 18:32:10;;;;;;;34.00;18.10;;;;;;;-2.82;63.93;101541.95;106997;284;97921;-55
2023/11/22 18:34:46;;;;;;;31.70;16.50;;;;;;;-2.83;64.09;101536.75;107157;283;96586;-54
2023/11/22 18:37:26;;;;;;;28.60;15.70;;;;;;;-2.84;63.78;101533.98;107139;283;116688;-53
2023/11/22 18:40:07;;;;;;;28.70;15.60;;;;;;;-2.86;63.81;101525.42;107113;284;104719;-53
2023/11/22 18:43:06;;;;;;;30.10;16.10;;;;;;;-2.87;63.95;101518.80;107025;284;115437;-52
2023/11/22 18:45:49;;;;;;;26.80;15.70;;;;;;;-2.85;63.92;101515.69;107157;283;93537;-53
2023/11/22 18:48:32;;;;;;;28.80;15.40;;;;;;;-2.84;64.02;101511.08;107169;283;97415;-55
2023/11/22 18:51:38;;;;;;;29.40;15.90;;;;;;;-2.86;63.99;101516.24;107123;283;118011;-57
2023/11/22 18:54:14;;;;;;;27.40;16.20;;;;;;;-2.91;63.96;101516.17;107138;283;105063;-53
2023/11/22 18:57:30;;;;;;;29.50;15.00;;;;;;;-2.94;63.97;101502.04;107136;283;112188;-51
2023/11/22 19:00:32;;;;;;;28.80;15.40;;;;;;;-3.01;64.06;101501.47;107100;283;93691;-54
2023/11/22 19:03:21;;;;;;;28.30;16.40;;;;;;;-3.07;64.12;101506.23;107181;283;96746;-57
2023/11/22 19:05:57;;;;;;;28.10;15.10;;;;;;;-3.11;64.13;101518.40;107128;283;118428;-57
2023/11/22 19:08:33;;;;;;;28.80;16.60;;;;;;;-3.16;64.30;101528.52;107183;283;105171;-53
2023/11/22 19:11:37;;;;;;;30.10;17.00;;;;;;;-3.21;64.44;101538.08;107104;282;116574;-54
2023/11/22 19:14:40;;;;;;;27.00;15.80;;;;;;;-3.26;64.48;101538.48;107214;282;94358;-52
2023/11/22 19:17:20;;;;;;;30.60;17.60;;;;;;;-3.27;64.64;101541.21;107140;282;98243;-55
2023/11/22 19:20:10;;;;;;;30.90;17.60;;;;;;;-3.28;64.76;101538.95;107267;282;118818;-56
2023/11/22 19:22:45;;;;;;;30.10;17.20;;;;;;;-3.27;64.90;101532.89;107128;278;105806;-56
2023/11/22 19:25:21;;;;;;;29.80;17.70;;;;;;;-3.24;65.03;101525.55;107241;282;114487;-57
2023/11/22 19:30:55;;;;;;;34.70;17.90;;;;;;;-3.25;65.31;101501.63;107152;282;98486;-56
2023/11/22 19:36:33;;;;;;;35.10;20.10;;;;;;;-3.24;65.49;101483.24;107222;282;104826;-57
2023/11/22 19:39:12;;;;;;;32.70;18.60;;;;;;;-3.21;65.50;101478.92;107255;282;114414;-56
2023/11/22 19:41:52;;;;;;;34.10;19.70;;;;;;;-3.22;65.48;101479.81;107395;280;95388;-55
2023/11/22 19:44:35;;;;;;;33.90;18.60;;;;;;;-3.19;65.53;101484.82;107419;280;96004;-55
2023/11/22 19:47:21;;;;;;;31.80;19.70;;;;;;;-3.19;65.56;101488.86;107394;280;120514;-58
2023/11/22 19:49:56;;;;;;;35.40;19.40;;;;;;;-3.20;65.71;101480.11;107467;280;105751;-57
2023/11/22 19:52:36;;;;;;;33.80;20.50;;;;;;;-3.18;65.74;101478.77;107399;280;114924;-52
2023/11/22 19:55:13;;;;;;;31.40;19.10;;;;;;;-3.18;65.77;101487.01;107349;280;93038;-52
2023/11/22 19:57:51;;;;;;;36.30;19.20;;;;;;;-3.21;65.95;101473.27;107460;280;98364;-55
2023/11/22 20:00:27;;;;;;;32.10;18.80;;;;;;;-3.20;66.13;101455.77;107424;280;120885;-56
2023/11/22 20:03:11;;;;;;;32.50;19.20;;;;;;;-3.19;65.97;101446.90;107412;280;105787;-55
2023/11/22 20:05:48;;;;;;;31.20;17.90;;;;;;;-3.18;66.08;101437.20;107436;280;113515;-56
2023/11/22 20:08:24;;;;;;;32.00;17.30;;;;;;;-3.15;66.05;101430.88;107389;280;95783;-53
2023/11/22 20:11:02;;;;;;;32.50;16.80;;;;;;;-3.13;66.04;101426.51;107445;280;95453;-54
2023/11/22 20:13:42;;;;;;;32.80;17.20;;;;;;;-3.08;65.95;101426.27;107473;279;119250;-55
2023/11/22 20:16:16;;;;;;;30.50;17.60;;;;;;;-3.08;66.11;101429.63;107436;280;104592;-55
2023/11/22 20:18:53;;;;;;;26.60;16.30;;;;;;;-3.06;66.03;101419.50;107403;279;114937;-56
2023/11/22 20:21:33;;;;;;;31.00;17.60;;;;;;;-3.06;66.06;101418.38;107398;280;93750;-55
2023/11/22 20:24:09;;;;;;;29.10;17.60;;;;;;;-3.06;66.03;101427.23;107462;280;95876;-51
2023/11/22 20:26:48;;;;;;;30.50;16.80;;;;;;;-3.07;66.07;101428.34;107444;280;118186;-53
2023/11/22 20:29:30;;;;;;;24.60;15.40;;;;;;;-3.10;66.25;101435.70;107403;280;104778;-53
2023/11/22 20:32:08;;;;;;;31.40;17.20;;;;;;;-3.12;66.36;101446.73;107408;280;113670;-57
2023/11/22 20:34:46;;;;;;;27.60;17.30;;;;;;;-3.10;66.41;101452.45;107393;280;97643;-57
2023/11/22 20:37:23;;;;;;;28.10;16.20;;;;;;;-3.09;66.50;101454.34;107452;280;95710;-53
2023/11/22 20:39:58;;;;;;;30.60;16.90;;;;;;;-3.05;66.49;101450.23;107365;280;119265;-53
2023/11/22 20:42:37;;;;;;;29.70;17.60;;;;;;;-3.00;66.56;101456.89;107385;280;106156;-55
2023/11/22 20:45:14;;;;;;;32.80;17.30;;;;;;;-2.95;66.52;101438.30;107405;280;113470;-55
2023/11/22 20:47:55;;;;;;;30.80;18.20;;;;;;;-2.89;66.43;101418.44;107438;280;93329;-52
2023/11/22 20:50:34;;;;;;;29.50;17.50;;;;;;;-2.89;66.44;101419.30;107456;280;97764;-52
2023/11/22 20:53:17;;;;;;;27.10;16.10;;;;;;;-2.91;66.52;101429.64;107406;279;118465;-58
2023/11/22 20:56:00;;;;;;;30.30;16.40;;;;;;;-2.94;66.65;101425.20;107413;280;105066;-59
2023/11/22 20:58:43;;;;;;;33.20;17.40;;;;;;;-2.97;66.66;101409.15;107410;280;115521;-54
2023/11/22 21:01:23;;;;;;;29.20;17.30;;;;;;;-2.99;66.70;101400.08;107379;280;97013;-53
2023/11/22 21:04:05;;;;;;;27.90;16.40;;;;;;;-2.97;66.94;101384.82;107407;280;96289;-53
2023/11/22 21:06:45;;;;;;;26.00;16.00;;;;;;;-2.95;66.74;101376.80;107434;279;120645;-53
2023/11/22 21:09:29;;;;;;;28.80;16.90;;;;;;;-2.95;66.83;101375.57;107409;279;105552;-53
2023/11/22 21:12:09;;;;;;;28.20;16.00;;;;;;;-2.93;66.79;101372.31;107430;279;113501;-57
2023/11/22 21:14:51;;;;;;;24.90;15.10;;;;;;;-2.90;66.78;101369.52;107452;280;94301;-58
2023/11/22 21:17:30;;;;;;;29.20;16.50;;;;;;;-2.92;66.88;101363.42;107466;280;97407;-52
2023/11/22 21:20:10;;;;;;;27.60;16.20;;;;;;;-2.95;66.92;101368.17;107407;279;119761;-52
2023/11/22 21:22:49;;;;;;;27.10;15.70;;;;;;;-2.97;66.95;101368.05;107408;280;105613;-54
2023/11/22 21:25:27;;;;;;;29.20;16.50;;;;;;;-2.96;66.98;101370.17;107396;280;114048;-54
2023/11/22 21:28:12;;;;;;;33.00;17.90;;;;;;;-2.99;67.01;101372.20;107368;279;95879;-56
2023/11/22 21:30:51;;;;;;;34.10;18.00;;;;;;;-3.01;67.03;101378.51;107423;280;97718;-56
2023/11/22 21:33:28;;;;;;;39.50;20.50;;;;;;;-3.03;67.13;101384.80;107435;280;119440;-53
2023/11/22 21:36:18;;;;;;;35.60;19.90;;;;;;;-3.03;67.16;101375.05;107396;280;104282;-53
2023/11/22 21:38:58;;;;;;;38.20;20.90;;;;;;;-2.98;67.14;101356.14;107380;279;113590;-56
2023/11/22 21:41:45;;;;;;;41.00;22.50;;;;;;;-2.91;67.19;101354.39;107389;279;93489;-56
2023/11/22 21:44:26;;;;;;;36.70;20.90;;;;;;;-2.83;67.26;101352.73;107464;279;96759;-52
2023/11/22 21:47:04;;;;;;;41.40;22.30;;;;;;;-2.84;67.16;101329.36;107418;280;119126;-53
2023/11/22 21:49:43;;;;;;;44.30;23.50;;;;;;;-2.85;67.27;101316.02;107438;280;105281;-54
2023/11/22 21:52:26;;;;;;;44.00;22.90;;;;;;;-2.84;67.34;101307.69;107439;279;113545;-56
2023/11/22 21:55:06;;;;;;;43.10;23.70;;;;;;;-2.86;67.39;101298.95;107416;280;95172;-55
2023/11/22 21:57:47;;;;;;;48.30;24.60;;;;;;;-2.89;67.40;101291.90;107401;280;98366;-54
2023/11/22 22:00:25;;;;;;;39.80;22.00;;;;;;;-2.91;67.40;101283.73;107436;280;119448;-54
2023/11/22 22:03:07;;;;;;;40.00;23.20;;;;;;;-2.97;67.47;101276.13;107528;280;105725;-52
2023/11/22 22:05:47;;;;;;;41.80;22.50;;;;;;;-3.01;67.44;101270.30;107587;280;112927;-52
2023/11/22 22:08:36;;;;;;;49.80;25.80;;;;;;;-3.02;67.57;101269.29;107499;279;97801;-52
2023/11/22 22:11:15;;;;;;;43.90;25.50;;;;;;;-2.99;67.47;101270.75;107401;280;96556;-52
2023/11/22 22:13:57;;;;;;;45.90;25.70;;;;;;;-2.98;67.48;101274.38;107428;280;118324;-56
2023/11/22 22:16:39;;;;;;;43.90;24.90;;;;;;;-2.90;67.53;101279.45;107408;280;106026;-56
2023/11/22 22:19:20;;;;;;;43.20;25.60;;;;;;;-2.83;67.44;101276.75;107400;280;114322;-56
2023/11/22 22:21:59;;;;;;;46.50;24.30;;;;;;;-2.82;67.43;101277.77;107373;280;93869;-54
2023/11/22 22:24:37;;;;;;;44.30;23.70;;;;;;;-2.85;67.55;101278.09;107348;280;97362;-56
2023/11/22 22:27:17;;;;;;;47.60;25.30;;;;;;;-2.85;67.61;101274.59;107396;280;118551;-55
2023/11/22 22:29:57;;;;;;;44.60;24.30;;;;;;;-2.86;67.56;101273.60;107432;280;106023;-55
2023/11/22 22:32:33;;;;;;;42.00;24.10;;;;;;;-2.88;67.57;101270.35;107389;280;113784;-53
2023/11/22 22:35:12;;;;;;;43.80;25.00;;;;;;;-2.89;67.66;101260.89;107378;280;95190;-53
2023/11/22 22:37:53;;;;;;;46.40;23.90;;;;;;;-2.89;67.56;101248.70;107440;280;95448;-57
2023/11/22 22:40:33;;;;;;;42.90;23.10;;;;;;;-2.85;67.67;101237.02;106826;280;120436;-54
2023/11/22 22:43:18;;;;;;;47.80;24.40;;;;;;;-2.80;67.83;101232.21;107447;280;105772;-56
2023/11/22 22:46:02;;;;;;;42.60;23.60;;;;;;;-2.78;67.64;101233.83;106705;280;261827;-56
2023/11/22 22:48:47;;;;;;;38.20;21.00;;;;;;;-2.79;67.53;101220.84;107363;281;93988;-58
2023/11/22 22:51:26;;;;;;;41.30;22.00;;;;;;;-2.84;67.70;101200.35;107245;281;155117;-59
2023/11/22 22:54:04;;;;;;;40.60;22.70;;;;;;;-2.85;67.70;101183.98;107422;281;117993;-55
2023/11/22 22:56:39;;;;;;;43.70;22.90;;;;;;;-2.86;67.69;101170.83;107242;281;156166;-54
2023/11/22 22:59:13;;;;;;;39.40;20.90;;;;;;;-2.87;67.88;101156.64;107360;281;113400;-51
2023/11/22 23:01:52;;;;;;;38.40;21.70;;;;;;;-2.90;67.88;101156.95;107363;281;97730;-56
2023/11/22 23:04:33;;;;;;;36.50;21.30;;;;;;;-2.87;67.72;101157.17;107261;280;154447;-55
2023/11/22 23:07:09;;;;;;;37.60;22.40;;;;;;;-2.85;67.68;101148.40;107377;280;119314;-57
2023/11/22 23:09:46;;;;;;;35.00;17.60;;;;;;;-2.86;67.69;101151.11;107223;280;155352;-56
2023/11/22 23:12:22;;;;;;;39.00;21.50;;;;;;;-2.90;67.94;101143.90;107283;282;114121;-55
2023/11/22 23:15:01;;;;;;;38.80;21.20;;;;;;;-2.88;67.77;101144.67;107180;282;155645;-54
2023/11/22 23:17:37;;;;;;;38.60;23.00;;;;;;;-2.88;67.94;101133.95;107268;282;96462;-58
2023/11/22 23:20:15;;;;;;;36.80;20.40;;;;;;;-2.90;67.76;101134.77;107283;282;119202;-59
2023/11/22 23:22:51;;;;;;;42.10;21.60;;;;;;;-2.95;67.89;101130.13;107128;282;156002;-53
2023/11/22 23:25:31;;;;;;;34.90;20.10;;;;;;;-2.97;67.73;101121.42;107278;282;114705;-53
2023/11/22 23:28:12;;;;;;;39.20;21.50;;;;;;;-2.95;67.91;101114.94;107190;282;154652;-55
2023/11/22 23:30:50;;;;;;;37.30;20.70;;;;;;;-2.93;67.89;101106.75;107303;282;98706;-55
2023/11/22 23:33:27;;;;;;;37.20;19.90;;;;;;;-2.89;67.84;101101.95;107195;282;154576;-58
2023/11/22 23:36:03;;;;;;;35.80;20.90;;;;;;;-2.89;67.94;101086.05;107308;282;105108;-58
2023/11/22 23:38:46;;;;;;;36.10;20.80;;;;;;;-2.88;67.93;101081.79;107163;282;154399;-59
2023/11/22 23:41:25;;;;;;;37.10;20.30;;;;;;;-2.88;67.90;101067.36;107254;282;96471;-58
2023/11/22 23:44:00;;;;;;;34.10;19.30;;;;;;;-2.89;68.08;101061.58;107351;282;96195;-57
2023/11/22 23:46:38;;;;;;;33.60;18.50;;;;;;;-2.87;68.16;101059.35;107120;282;154945;-58
2023/11/22 23:49:22;;;;;;;33.70;20.10;;;;;;;-2.82;68.16;101045.83;107337;282;105035;-56
2023/11/22 23:52:05;;;;;;;34.60;18.40;;;;;;;-2.76;68.00;101032.94;107109;282;154554;-53
2023/11/22 23:54:47;;;;;;;30.30;17.40;;;;;;;-2.73;68.07;101027.48;107301;282;92897;-54
2023/11/22 23:57:25;;;;;;;31.90;18.80;;;;;;;-2.74;68.07;101025.80;107221;282;154156;-58
